Time;durP1;ratioP1;P1;durP2;ratioP2;P2;SDS_P1;SDS_P2;PMS_P1;PMS_P2;Temp;Humidity;BMP_temperature;BMP_pressure;BME280_temperature;BME280_humidity;BME280_pressure;Samples;Min_cycle;Max_cycle;Signal;HPM_P1;HPM_P2
2022/05/30 00:00:20;;;;;;;5.20;0.82;;;;;;;9.59;81.21;100696.00;5037781;28;20037;-83
2022/05/30 00:02:47;;;;;;;2.03;0.93;;;;;;;9.57;81.84;100693.41;5037584;28;20381;-83
2022/05/30 00:05:13;;;;;;;1.85;0.80;;;;;;;9.57;82.21;100690.81;5037419;28;20029;-83
2022/05/30 00:07:39;;;;;;;1.88;1.30;;;;;;;9.58;81.99;100691.66;5037971;28;20458;-83
2022/05/30 00:10:07;;;;;;;3.85;0.90;;;;;;;9.55;81.13;100694.31;5037435;28;20060;-83
2022/05/30 00:12:33;;;;;;;4.18;1.10;;;;;;;9.51;79.79;100697.84;5037575;28;20025;-83
2022/05/30 00:14:58;;;;;;;3.40;0.85;;;;;;;9.50;80.90;100691.72;5037282;28;20464;-83
2022/05/30 00:17:23;;;;;;;6.28;1.20;;;;;;;9.50;81.79;100696.94;5036794;28;20055;-83
2022/05/30 00:19:49;;;;;;;2.75;1.35;;;;;;;9.50;81.88;100694.34;5036646;28;20033;-83
2022/05/30 00:22:14;;;;;;;2.55;0.90;;;;;;;9.52;82.11;100697.81;5036618;28;20539;-83
2022/05/30 00:24:43;;;;;;;1.60;0.88;;;;;;;9.52;82.10;100691.75;5036955;28;20052;-83
2022/05/30 00:27:10;;;;;;;1.70;0.85;;;;;;;9.53;82.22;100699.53;5036710;28;20395;-83
2022/05/30 00:29:36;;;;;;;3.50;0.88;;;;;;;9.52;83.03;100692.59;5036390;28;20029;-83
2022/05/30 00:32:01;;;;;;;5.57;1.30;;;;;;;9.52;83.17;100692.59;5036899;28;20085;-83
2022/05/30 00:34:27;;;;;;;5.30;0.80;;;;;;;9.51;83.35;100698.69;5036819;28;20394;-83
2022/05/30 00:36:53;;;;;;;4.70;0.95;;;;;;;9.50;83.77;100690.88;5036469;28;20479;-83
2022/05/30 00:39:18;;;;;;;3.13;1.10;;;;;;;9.52;83.64;100695.19;5036546;28;20118;-83
2022/05/30 00:41:44;;;;;;;2.92;0.93;;;;;;;9.52;83.59;100699.56;5053232;28;20121;-83
2022/05/30 00:44:10;;;;;;;2.38;0.98;;;;;;;9.50;84.30;100696.94;5036418;28;20371;-83
2022/05/30 00:46:35;;;;;;;3.97;1.33;;;;;;;9.49;84.71;100700.47;5036371;28;20020;-83
2022/05/30 00:49:07;;;;;;;1.95;0.80;;;;;;;9.48;84.68;100701.34;5036632;28;20032;-83
2022/05/30 00:51:46;;;;;;;3.10;1.02;;;;;;;9.46;85.03;100701.34;5036853;28;20559;-83
2022/05/30 00:54:16;;;;;;;5.22;1.20;;;;;;;9.47;84.88;100697.88;5036430;28;20029;-83
2022/05/30 00:56:45;;;;;;;3.20;0.88;;;;;;;9.46;85.65;100703.09;5035982;28;20021;-83
2022/05/30 00:59:12;;;;;;;4.05;1.13;;;;;;;9.44;85.81;100703.09;5036235;28;20025;-83
2022/05/30 01:01:37;;;;;;;6.18;1.20;;;;;;;9.44;85.40;100704.84;5036182;28;20025;-83
2022/05/30 01:06:51;;;;;;;2.75;1.10;;;;;;;9.43;85.94;100697.91;5053019;28;20059;-83
2022/05/30 01:09:34;;;;;;;2.65;1.00;;;;;;;9.40;86.49;100700.56;5036045;28;20111;-83
2022/05/30 01:12:03;;;;;;;4.32;1.15;;;;;;;9.40;86.53;100700.56;5036157;28;20035;-82
2022/05/30 01:14:38;;;;;;;2.50;1.05;;;;;;;9.38;86.64;100692.75;5035853;28;20024;-83
2022/05/30 01:17:08;;;;;;;3.92;0.93;;;;;;;9.38;86.65;100697.09;5035732;28;20060;-83
2022/05/30 01:19:42;;;;;;;2.95;1.02;;;;;;;9.38;86.39;100704.91;5035849;28;20047;-83
2022/05/30 01:22:43;;;;;;;4.40;1.20;;;;;;;9.36;87.01;100691.03;5052228;28;20086;-83
2022/05/30 01:25:20;;;;;;;6.80;1.30;;;;;;;9.36;87.39;100693.66;5033322;28;20036;-83
2022/05/30 01:28:07;;;;;;;7.10;1.40;;;;;;;9.33;86.88;100693.69;5035810;28;20029;-83
2022/05/30 01:30:34;;;;;;;4.05;1.13;;;;;;;9.33;87.05;100693.69;5052225;28;20040;-83
2022/05/30 01:32:59;;;;;;;4.35;1.42;;;;;;;9.32;86.62;100699.78;5035622;28;20028;-82
2022/05/30 01:35:26;;;;;;;4.70;1.30;;;;;;;9.30;86.48;100691.97;5051735;28;20486;-83
2022/05/30 01:37:51;;;;;;;5.63;1.00;;;;;;;9.28;86.20;100691.13;5035523;28;20028;-83
2022/05/30 01:40:18;;;;;;;1.88;0.90;;;;;;;9.27;85.67;100695.47;5035442;28;20552;-83
2022/05/30 01:42:43;;;;;;;3.28;1.17;;;;;;;9.27;85.41;100685.06;5035640;28;20048;-83
2022/05/30 01:45:09;;;;;;;5.07;0.90;;;;;;;9.25;85.31;100681.59;5034832;28;20144;-83
2022/05/30 01:47:34;;;;;;;3.28;1.00;;;;;;;9.24;85.87;100689.44;5035242;28;20028;-83
2022/05/30 01:50:01;;;;;;;4.95;1.08;;;;;;;9.23;86.09;100680.75;5035188;28;20112;-83
2022/05/30 01:52:28;;;;;;;3.65;1.02;;;;;;;9.24;85.59;100682.50;5035512;28;20025;-82
2022/05/30 01:54:54;;;;;;;2.78;1.30;;;;;;;9.24;85.20;100679.88;5035878;28;20044;-83
2022/05/30 01:57:19;;;;;;;6.70;1.13;;;;;;;9.23;85.28;100678.16;5051984;28;20040;-83
2022/05/30 01:59:45;;;;;;;4.43;1.20;;;;;;;9.20;85.43;100682.53;5052107;28;20021;-83
2022/05/30 02:02:10;;;;;;;5.05;1.45;;;;;;;9.19;85.09;100678.19;5051866;28;20501;-83
2022/05/30 02:04:35;;;;;;;3.50;1.02;;;;;;;9.14;84.61;100678.25;5035362;28;20090;-83
2022/05/30 02:07:01;;;;;;;3.35;1.45;;;;;;;9.11;84.29;100686.09;5035691;28;20506;-83
2022/05/30 02:09:26;;;;;;;3.17;1.40;;;;;;;9.06;84.61;100680.06;5035179;28;20037;-83
2022/05/30 02:11:52;;;;;;;5.90;1.45;;;;;;;9.06;85.20;100680.06;5034891;28;20024;-83
2022/05/30 02:14:17;;;;;;;3.53;1.48;;;;;;;9.06;84.87;100680.06;5035700;28;20028;-83
2022/05/30 02:17:01;;;;;;;4.53;1.45;;;;;;;9.02;84.84;100681.81;5035434;28;20506;-83
2022/05/30 02:19:33;;;;;;;5.78;1.60;;;;;;;8.96;84.89;100682.75;5037441;28;20036;-83
2022/05/30 02:22:00;;;;;;;6.07;1.42;;;;;;;8.94;84.74;100678.44;5038778;28;20031;-83
2022/05/30 02:24:26;;;;;;;4.82;1.50;;;;;;;8.91;84.91;100684.53;5055350;28;20035;-83
2022/05/30 02:26:52;;;;;;;6.80;1.73;;;;;;;8.86;84.76;100683.75;5038445;28;20051;-83
2022/05/30 02:29:17;;;;;;;6.03;1.90;;;;;;;8.86;84.99;100685.47;5038223;28;20025;-83
2022/05/30 02:31:43;;;;;;;3.25;1.05;;;;;;;8.84;85.50;100682.88;5038417;28;20090;-83
2022/05/30 02:36:54;;;;;;;8.07;1.57;;;;;;;8.79;85.99;100687.25;5055466;28;20032;-83
2022/05/30 02:39:29;;;;;;;7.38;1.45;;;;;;;8.77;86.01;100686.41;5038797;28;20285;-83
2022/05/30 02:41:54;;;;;;;3.47;1.33;;;;;;;8.78;86.64;100685.53;5037912;28;20478;-83
2022/05/30 02:44:22;;;;;;;5.38;1.55;;;;;;;8.75;87.23;100680.34;5038100;28;20050;-84
2022/05/30 02:46:49;;;;;;;5.70;1.67;;;;;;;8.74;87.15;100691.63;5038460;28;20033;-83
2022/05/30 02:49:15;;;;;;;8.80;1.40;;;;;;;8.74;86.68;100689.03;5038174;28;20025;-83
2022/05/30 02:51:41;;;;;;;4.50;1.88;;;;;;;8.72;87.26;100685.59;5038080;28;20516;-83
2022/05/30 02:54:06;;;;;;;5.22;1.30;;;;;;;8.68;87.46;100689.94;5038129;28;20119;-83
2022/05/30 02:56:32;;;;;;;7.28;1.73;;;;;;;8.62;87.08;100690.88;5037885;28;20031;-83
2022/05/30 02:58:58;;;;;;;3.58;1.40;;;;;;;8.56;86.80;100696.16;5037909;28;20128;-86
2022/05/30 03:01:24;;;;;;;5.25;1.30;;;;;;;8.57;87.88;100697.00;5036419;28;20025;-86
2022/05/30 03:03:50;;;;;;;5.47;1.42;;;;;;;8.59;88.78;100695.25;5036303;28;20044;-85
2022/05/30 03:06:16;;;;;;;3.42;1.13;;;;;;;8.60;89.61;100699.56;5036380;28;20025;-86
2022/05/30 03:08:41;;;;;;;4.00;1.30;;;;;;;8.59;89.56;100695.25;5036347;28;20020;-86
2022/05/30 03:11:07;;;;;;;3.90;1.48;;;;;;;8.61;89.53;100701.31;5052777;28;20079;-87
2022/05/30 03:13:33;;;;;;;2.47;1.10;;;;;;;8.62;89.53;100695.22;5036330;28;20399;-85
2022/05/30 03:15:58;;;;;;;3.67;1.30;;;;;;;8.66;89.38;100701.25;5036325;28;20025;-86
2022/05/30 03:18:25;;;;;;;3.28;1.27;;;;;;;8.66;89.30;100698.66;5036242;28;20037;-86
2022/05/30 03:20:50;;;;;;;3.40;1.20;;;;;;;8.65;89.66;100700.41;5036087;28;20032;-86
2022/05/30 03:23:15;;;;;;;5.20;1.13;;;;;;;8.68;89.63;100696.91;5036154;28;20440;-86
2022/05/30 03:25:41;;;;;;;6.80;1.58;;;;;;;8.67;89.98;100698.66;5035979;28;20090;-86
2022/05/30 03:28:06;;;;;;;2.30;1.20;;;;;;;8.66;90.27;100702.13;5035936;28;20032;-86
2022/05/30 03:30:36;;;;;;;4.43;1.30;;;;;;;8.68;90.48;100702.13;5035818;28;20037;-86
2022/05/30 03:33:04;;;;;;;3.95;1.88;;;;;;;8.59;89.44;100701.31;5035467;28;20116;-85
2022/05/30 03:35:29;;;;;;;3.58;0.98;;;;;;;8.61;89.75;100704.75;5035789;28;20036;-86
2022/05/30 03:37:55;;;;;;;5.60;1.90;;;;;;;8.62;90.27;100701.28;5035772;28;20024;-86
2022/05/30 03:40:20;;;;;;;4.30;1.23;;;;;;;8.62;90.43;100703.88;5035738;28;20536;-86
2022/05/30 03:42:45;;;;;;;5.20;1.45;;;;;;;8.59;89.97;100701.31;5052107;28;20078;-86
2022/05/30 03:45:13;;;;;;;6.53;1.58;;;;;;;8.58;90.49;100706.53;5035683;28;20025;-85
2022/05/30 03:47:40;;;;;;;3.78;1.20;;;;;;;8.59;90.09;100710.88;5035779;28;20024;-85
2022/05/30 03:50:07;;;;;;;6.88;1.20;;;;;;;8.58;90.60;100710.00;5035517;28;20454;-86
2022/05/30 03:52:32;;;;;;;5.88;1.52;;;;;;;8.56;90.49;100706.56;5035448;28;20025;-86
2022/05/30 03:54:58;;;;;;;3.15;1.48;;;;;;;8.51;90.75;100713.53;5035429;28;20021;-85
2022/05/30 03:57:23;;;;;;;3.63;1.50;;;;;;;8.47;90.42;100714.44;5035504;28;20021;-81
2022/05/30 03:59:49;;;;;;;4.40;1.65;;;;;;;8.46;90.77;100710.94;5053025;28;20387;-81
2022/05/30 04:02:14;;;;;;;3.17;1.42;;;;;;;8.46;91.20;100712.69;5036033;28;20059;-81
2022/05/30 04:04:39;;;;;;;4.25;1.30;;;;;;;8.42;91.04;100703.16;5035591;28;20021;-81
2022/05/30 04:07:05;;;;;;;4.28;1.30;;;;;;;8.39;91.54;100711.00;5035569;28;20040;-81
2022/05/30 04:09:31;;;;;;;2.53;1.30;;;;;;;8.37;90.99;100710.13;5035550;28;20025;-81
2022/05/30 04:11:56;;;;;;;4.43;1.73;;;;;;;8.37;91.02;100707.50;5035391;28;20025;-81
2022/05/30 04:14:22;;;;;;;4.43;1.55;;;;;;;8.33;91.11;100714.50;5035582;28;20032;-81
2022/05/30 04:16:47;;;;;;;8.00;1.60;;;;;;;8.33;90.46;100713.63;5035385;28;20021;-81
2022/05/30 04:19:12;;;;;;;4.22;1.40;;;;;;;8.29;90.74;100718.00;5035605;28;20505;-81
2022/05/30 04:21:38;;;;;;;5.43;1.90;;;;;;;8.31;91.18;100721.44;5035425;28;20425;-81
2022/05/30 04:24:04;;;;;;;6.32;1.65;;;;;;;8.31;91.01;100711.03;5052515;28;20021;-81
2022/05/30 04:26:30;;;;;;;5.70;2.00;;;;;;;8.31;91.00;100715.38;5035295;28;20025;-82
2022/05/30 04:28:55;;;;;;;8.90;1.88;;;;;;;8.32;90.87;100719.69;5035173;28;20025;-82
2022/05/30 04:31:20;;;;;;;5.18;2.00;;;;;;;8.28;90.04;100721.47;5035500;28;20036;-82
2022/05/30 04:33:46;;;;;;;3.90;1.63;;;;;;;8.26;90.28;100718.00;5035164;28;20025;-81
2022/05/30 04:36:13;;;;;;;4.72;1.60;;;;;;;8.24;90.24;100720.63;5035288;28;20032;-81
2022/05/30 04:38:38;;;;;;;3.65;1.90;;;;;;;8.23;91.09;100726.69;5035129;28;20032;-85
2022/05/30 04:41:04;;;;;;;5.53;1.80;;;;;;;8.27;91.09;100731.00;5034461;28;20031;-85
2022/05/30 04:43:29;;;;;;;6.47;2.05;;;;;;;8.24;91.28;100720.63;5034409;28;20027;-85
2022/05/30 04:46:12;;;;;;;3.72;1.60;;;;;;;8.26;91.71;100721.47;5034407;28;20039;-84
2022/05/30 04:48:38;;;;;;;5.97;1.42;;;;;;;8.27;91.76;100725.78;5034359;28;20029;-85
2022/05/30 04:51:04;;;;;;;6.38;1.70;;;;;;;8.26;91.73;100724.09;5034290;28;20052;-85
2022/05/30 04:53:30;;;;;;;3.10;1.85;;;;;;;8.29;92.42;100725.81;5034352;28;20013;-85
2022/05/30 04:55:55;;;;;;;7.80;1.95;;;;;;;8.30;92.70;100730.13;5034453;28;20481;-84
2022/05/30 04:58:21;;;;;;;5.55;2.10;;;;;;;8.31;91.96;100729.25;5034353;28;20175;-84
2022/05/30 05:00:46;;;;;;;4.10;1.73;;;;;;;8.35;91.99;100732.72;5034150;28;20414;-85
2022/05/30 05:03:12;;;;;;;7.47;2.50;;;;;;;8.39;92.93;100734.41;5033917;28;20509;-85
2022/05/30 05:05:37;;;;;;;5.95;2.00;;;;;;;8.39;92.91;100737.03;5034169;28;20072;-85
2022/05/30 05:08:27;;;;;;;4.50;1.75;;;;;;;8.40;92.66;100743.97;5034032;28;20474;-85
2022/05/30 05:10:53;;;;;;;6.35;2.00;;;;;;;8.41;92.47;100746.56;5034282;28;20414;-85
2022/05/30 05:13:18;;;;;;;3.33;1.80;;;;;;;8.43;93.28;100746.53;5034254;28;20076;-85
2022/05/30 05:15:44;;;;;;;6.00;2.17;;;;;;;8.43;93.20;100742.19;5034009;28;20478;-85
2022/05/30 05:18:09;;;;;;;4.65;1.88;;;;;;;8.45;93.28;100742.19;5033977;28;20102;-85
2022/05/30 05:20:37;;;;;;;5.35;2.13;;;;;;;8.46;94.09;100741.34;5033916;28;20032;-85
2022/05/30 05:23:02;;;;;;;4.38;2.00;;;;;;;8.48;93.62;100744.81;5033771;28;20441;-85
2022/05/30 05:25:28;;;;;;;7.10;2.28;;;;;;;8.51;94.20;100749.97;5033925;28;20029;-86
2022/05/30 05:27:53;;;;;;;4.07;2.47;;;;;;;8.54;93.95;100749.09;5050531;28;20475;-85
2022/05/30 05:30:20;;;;;;;3.10;2.17;;;;;;;8.57;94.39;100744.72;5033682;28;20032;-85
2022/05/30 05:32:45;;;;;;;5.88;1.92;;;;;;;8.62;95.32;100742.94;5033957;28;20028;-85
2022/05/30 05:35:10;;;;;;;5.53;2.20;;;;;;;8.58;94.04;100749.06;5050397;28;20037;-85
2022/05/30 05:37:36;;;;;;;8.32;2.50;;;;;;;8.57;93.51;100749.06;5033552;28;20546;-85
2022/05/30 05:40:01;;;;;;;4.65;2.45;;;;;;;8.59;94.07;100756.00;5033770;28;20041;-85
2022/05/30 05:42:27;;;;;;;4.05;2.40;;;;;;;8.63;94.26;100755.09;5033645;28;20401;-84
2022/05/30 05:44:52;;;;;;;8.30;2.80;;;;;;;8.67;95.08;100760.28;5033778;28;20029;-86
2022/05/30 05:47:18;;;;;;;4.85;2.25;;;;;;;8.68;95.18;100759.41;5033526;28;20406;-85
2022/05/30 05:49:43;;;;;;;4.05;1.80;;;;;;;8.68;95.19;100760.25;5033611;28;20032;-84
2022/05/30 05:52:09;;;;;;;2.63;1.75;;;;;;;8.72;95.79;100763.72;5033440;28;20135;-84
2022/05/30 05:54:34;;;;;;;3.17;1.67;;;;;;;8.74;96.04;100772.38;5033879;28;20017;-85
2022/05/30 05:56:59;;;;;;;3.53;1.90;;;;;;;8.74;95.62;100768.03;5037538;28;20028;-85
2022/05/30 05:59:25;;;;;;;4.85;1.77;;;;;;;8.75;95.73;100763.69;5037573;28;20052;-85
2022/05/30 06:01:50;;;;;;;2.97;1.48;;;;;;;8.76;95.68;100768.03;5054255;28;20021;-84
2022/05/30 06:04:16;;;;;;;4.60;1.92;;;;;;;8.78;95.88;100772.34;5036261;28;20110;-85
2022/05/30 06:06:41;;;;;;;2.50;1.60;;;;;;;8.81;96.24;100779.28;5035975;28;20051;-85
2022/05/30 06:09:07;;;;;;;2.97;1.75;;;;;;;8.86;95.99;100774.91;5036137;28;20032;-85
2022/05/30 06:11:33;;;;;;;3.38;1.80;;;;;;;8.84;94.92;100779.25;5036048;28;20032;-85
2022/05/30 06:13:59;;;;;;;2.30;1.73;;;;;;;8.83;94.70;100777.53;5036050;28;20021;-85
2022/05/30 06:16:26;;;;;;;3.67;1.70;;;;;;;8.82;95.09;100775.81;5052567;28;20028;-85
2022/05/30 06:18:54;;;;;;;4.97;1.63;;;;;;;8.78;95.38;100779.28;5035943;28;20028;-85
2022/05/30 06:21:21;;;;;;;3.42;1.77;;;;;;;8.79;95.04;100781.91;5035970;28;20032;-85
2022/05/30 06:23:47;;;;;;;4.90;1.55;;;;;;;8.82;96.06;100790.56;5035782;28;20029;-85
2022/05/30 06:26:14;;;;;;;5.30;1.63;;;;;;;8.80;96.38;100791.44;5036266;28;20135;-85
2022/05/30 06:28:40;;;;;;;3.67;1.77;;;;;;;8.78;95.68;100789.72;5035709;28;20025;-84
2022/05/30 06:31:10;;;;;;;3.85;1.70;;;;;;;8.79;95.25;100791.44;5036008;28;20025;-85
2022/05/30 06:33:35;;;;;;;4.57;1.73;;;;;;;8.75;95.07;100790.63;5035852;28;20025;-85
2022/05/30 06:36:05;;;;;;;5.80;1.65;;;;;;;8.70;93.19;100791.50;5052520;28;20397;-85
2022/05/30 06:38:31;;;;;;;3.00;1.65;;;;;;;8.63;93.90;100796.78;5035592;28;20055;-86
2022/05/30 06:40:56;;;;;;;6.15;1.90;;;;;;;8.66;94.40;100797.59;5025701;22;1237649;-82
2022/05/30 06:43:21;;;;;;;2.70;1.52;;;;;;;8.67;94.88;100792.41;5059241;28;20038;-82
2022/05/30 06:45:47;;;;;;;2.95;1.80;;;;;;;8.69;94.63;100798.47;5077882;28;20024;-83
2022/05/30 06:48:14;;;;;;;5.00;1.83;;;;;;;8.70;94.67;100797.59;5061383;28;20024;-82
2022/05/30 06:50:39;;;;;;;3.75;1.90;;;;;;;8.73;95.42;100796.72;5061785;28;20032;-83
2022/05/30 06:53:04;;;;;;;4.35;1.75;;;;;;;8.73;95.65;100792.34;5062284;28;20028;-82
2022/05/30 06:55:33;;;;;;;3.42;2.05;;;;;;;8.77;95.39;100793.22;5061770;28;20393;-81
2022/05/30 06:58:13;;;;;;;8.65;2.13;;;;;;;8.84;95.36;100800.09;5061303;28;20049;-80
2022/05/30 07:00:39;;;;;;;4.85;2.05;;;;;;;8.84;95.84;100792.28;5062952;28;20027;-81
2022/05/30 07:03:04;;;;;;;4.53;1.85;;;;;;;8.85;94.78;100795.75;5077772;28;20024;-80
2022/05/30 07:05:30;;;;;;;4.57;1.70;;;;;;;8.82;94.51;100801.84;5077541;28;20077;-80
2022/05/30 07:07:58;;;;;;;7.72;1.90;;;;;;;8.82;95.07;100812.28;5060630;28;20069;-82
2022/05/30 07:10:25;;;;;;;4.93;2.30;;;;;;;8.82;94.39;100800.97;5064086;28;20027;-81
2022/05/30 07:12:51;;;;;;;1.65;1.55;;;;;;;8.87;95.25;100809.63;5060689;28;20085;-83
2022/05/30 07:15:16;;;;;;;2.50;1.88;;;;;;;8.92;95.97;100806.09;5060432;28;20023;-82
2022/05/30 07:17:42;;;;;;;5.93;1.83;;;;;;;8.94;95.17;100812.19;5077329;28;20027;-82
2022/05/30 07:20:08;;;;;;;3.45;2.00;;;;;;;8.96;95.13;100810.41;5060555;28;20016;-82
2022/05/30 07:22:34;;;;;;;5.05;1.67;;;;;;;8.99;94.48;100813.91;5060446;28;20469;-82
2022/05/30 07:24:59;;;;;;;3.55;1.80;;;;;;;9.02;94.12;100813.88;5060016;28;20020;-82
2022/05/30 07:27:25;;;;;;;1.48;1.15;;;;;;;9.05;94.63;100809.50;5060094;28;20063;-82
2022/05/30 07:29:50;;;;;;;3.08;1.48;;;;;;;9.09;95.02;100816.41;5061130;28;20016;-83
2022/05/30 07:32:16;;;;;;;4.25;2.00;;;;;;;9.09;94.44;100816.41;5060150;28;20035;-82
2022/05/30 07:34:42;;;;;;;4.35;1.48;;;;;;;9.12;94.39;100810.28;5060529;28;20082;-82
2022/05/30 07:37:07;;;;;;;3.60;1.38;;;;;;;9.19;95.16;100813.72;5060409;28;20027;-84
2022/05/30 07:39:36;;;;;;;2.88;1.52;;;;;;;9.24;95.10;100815.41;5061169;28;20016;-84
2022/05/30 07:42:02;;;;;;;2.40;1.20;;;;;;;9.25;93.95;100811.91;5061694;28;20405;-84
2022/05/30 07:44:28;;;;;;;4.70;1.55;;;;;;;9.26;93.46;100815.41;5062534;28;20459;-84
2022/05/30 07:46:53;;;;;;;3.13;1.50;;;;;;;9.26;93.51;100818.88;5061774;28;20084;-85
2022/05/30 07:49:18;;;;;;;3.95;1.25;;;;;;;9.27;93.18;100818.00;5062504;28;20024;-84
2022/05/30 07:51:44;;;;;;;2.92;1.83;;;;;;;9.28;92.99;100813.63;5062750;28;20055;-85
2022/05/30 07:54:09;;;;;;;2.33;1.52;;;;;;;9.24;92.76;100815.41;5063092;28;20023;-84
2022/05/30 07:56:36;;;;;;;4.47;1.92;;;;;;;9.24;92.96;100805.00;5062533;28;20443;-84
2022/05/30 07:59:01;;;;;;;4.10;1.92;;;;;;;9.28;93.74;100811.91;5062148;28;20016;-84
2022/05/30 08:01:26;;;;;;;2.55;1.33;;;;;;;9.33;94.64;100813.63;5062996;28;20085;-84
2022/05/30 08:03:52;;;;;;;3.22;1.60;;;;;;;9.39;94.17;100813.53;5063550;28;20016;-85
2022/05/30 08:06:24;;;;;;;1.30;1.20;;;;;;;9.41;93.11;100807.44;5063021;28;20059;-84
2022/05/30 08:08:49;;;;;;;4.18;1.63;;;;;;;9.44;92.98;100811.75;5061822;28;20511;-84
2022/05/30 08:11:16;;;;;;;1.58;1.23;;;;;;;9.44;92.00;100815.22;5061826;28;20024;-83
2022/05/30 08:13:43;;;;;;;4.88;1.05;;;;;;;9.42;91.46;100805.69;5062139;28;20032;-84
2022/05/30 08:16:09;;;;;;;2.17;1.40;;;;;;;9.42;91.83;100813.50;5060028;28;20024;-83
2022/05/30 08:18:34;;;;;;;2.35;1.10;;;;;;;9.44;91.29;100814.38;5056173;28;20032;-84
2022/05/30 08:21:00;;;;;;;2.03;1.10;;;;;;;9.44;90.22;100812.59;5047229;28;20028;-84
2022/05/30 08:23:27;;;;;;;2.65;0.80;;;;;;;9.45;90.81;100818.72;5042767;28;20031;-84
2022/05/30 08:25:53;;;;;;;1.30;0.90;;;;;;;9.47;91.19;100816.94;5039946;28;20024;-84
2022/05/30 08:28:18;;;;;;;1.92;0.93;;;;;;;9.49;91.61;100825.63;5039009;28;20024;-85
2022/05/30 08:30:44;;;;;;;1.30;0.93;;;;;;;9.56;91.94;100822.06;5041308;28;20437;-85
2022/05/30 08:33:15;;;;;;;3.70;1.17;;;;;;;9.62;91.20;100821.97;5043425;28;20020;-85
2022/05/30 08:35:41;;;;;;;1.60;1.08;;;;;;;9.74;91.44;100831.44;5043176;28;20020;-84
2022/05/30 08:38:07;;;;;;;3.85;1.00;;;;;;;9.77;88.61;100836.63;5043581;28;20081;-84
2022/05/30 08:43:35;;;;;;;3.80;0.80;;;;;;;9.75;85.03;100838.38;5059582;28;20035;-84
2022/05/30 08:46:10;;;;;;;2.35;0.80;;;;;;;9.69;85.60;100835.84;5040303;28;20024;-84
2022/05/30 08:48:42;;;;;;;1.25;0.77;;;;;;;9.68;85.95;100830.63;5040529;28;20024;-85
2022/05/30 08:51:15;;;;;;;3.28;0.90;;;;;;;9.70;86.30;100836.72;5039984;28;20025;-85
2022/05/30 08:53:41;;;;;;;2.55;0.85;;;;;;;9.71;86.63;100834.09;5039581;28;20477;-84
2022/05/30 08:56:16;;;;;;;1.30;0.90;;;;;;;9.79;87.97;100831.41;5056092;28;20025;-84
2022/05/30 08:58:50;;;;;;;1.45;0.85;;;;;;;9.84;86.85;100832.19;5055972;28;20050;-85
2022/05/30 09:01:26;;;;;;;1.02;0.98;;;;;;;9.94;88.06;100838.19;5056344;28;20059;-84
2022/05/30 09:04:10;;;;;;;2.08;0.90;;;;;;;10.01;88.11;100836.34;5039185;28;20028;-85
2022/05/30 09:06:47;;;;;;;1.73;0.80;;;;;;;9.96;86.74;100842.50;5043962;28;20056;-84
2022/05/30 09:09:24;;;;;;;1.85;0.82;;;;;;;9.95;87.18;100845.13;5038033;28;20482;-84
2022/05/30 09:12:14;;;;;;;1.50;0.80;;;;;;;9.94;87.93;100835.59;5038671;28;20028;-84
2022/05/30 09:14:47;;;;;;;1.65;0.80;;;;;;;9.95;87.80;100842.53;5049697;28;20023;-84
2022/05/30 09:17:36;;;;;;;2.53;0.90;;;;;;;10.00;88.49;100837.25;5047309;28;20021;-84
2022/05/30 09:20:06;;;;;;;2.90;0.60;;;;;;;10.05;87.50;100830.22;5069006;28;20057;-84
2022/05/30 09:22:31;;;;;;;2.75;0.90;;;;;;;10.09;84.82;100826.69;5044104;28;20027;-84
2022/05/30 09:27:42;;;;;;;2.63;1.33;;;;;;;10.32;86.96;100835.13;5059342;28;20035;-84
2022/05/30 09:30:09;;;;;;;2.58;1.10;;;;;;;10.39;84.84;100835.06;5039729;28;20414;-84
2022/05/30 09:32:52;;;;;;;4.78;0.70;;;;;;;10.49;83.76;100839.28;5039648;28;20024;-84
2022/05/30 09:35:20;;;;;;;2.05;0.95;;;;;;;10.60;83.76;100832.16;5039984;28;20164;-84
2022/05/30 09:37:45;;;;;;;0.98;0.60;;;;;;;10.68;83.91;100844.28;5056027;28;20028;-84
2022/05/30 09:40:11;;;;;;;3.35;0.98;;;;;;;10.68;80.24;100847.72;5039372;28;20021;-84
2022/05/30 09:42:48;;;;;;;1.15;0.77;;;;;;;10.75;83.67;100848.50;5038654;28;20033;-85
2022/05/30 09:45:25;;;;;;;2.80;1.00;;;;;;;10.76;83.21;100845.03;5039871;28;20032;-85
2022/05/30 09:48:01;;;;;;;1.67;0.75;;;;;;;10.74;82.34;100844.16;5039506;28;20119;-86
2022/05/30 09:50:27;;;;;;;0.93;0.57;;;;;;;10.69;80.90;100849.47;5039633;28;20120;-85
2022/05/30 09:52:52;;;;;;;3.80;0.98;;;;;;;10.64;81.80;100849.50;5039872;28;20466;-85
2022/05/30 09:55:33;;;;;;;4.03;1.50;;;;;;;10.58;80.81;100857.44;5040428;28;20024;-85
2022/05/30 09:58:00;;;;;;;1.73;1.60;;;;;;;10.49;81.86;100849.72;5041282;28;20017;-84
2022/05/30 10:00:42;;;;;;;1.50;1.10;;;;;;;10.44;84.74;100859.38;5041599;28;20133;-84
2022/05/30 10:03:23;;;;;;;2.20;1.40;;;;;;;10.38;85.28;100860.31;5040848;28;20056;-85
2022/05/30 10:05:48;;;;;;;2.00;1.20;;;;;;;10.30;85.73;100855.16;5039849;28;20024;-85
2022/05/30 10:08:27;;;;;;;2.00;0.98;;;;;;;10.23;85.68;100863.94;5039256;28;20389;-84
2022/05/30 10:10:53;;;;;;;3.90;3.00;;;;;;;10.16;86.01;100864.91;5040560;28;20696;-84
2022/05/30 10:13:39;;;;;;;4.80;3.17;;;;;;;10.10;86.43;100867.56;5040000;28;20047;-85
2022/05/30 10:16:12;;;;;;;2.67;1.77;;;;;;;10.08;87.17;100877.19;5038678;28;20063;-85
2022/05/30 10:18:54;;;;;;;1.58;1.35;;;;;;;10.03;87.62;100868.53;5038316;28;20505;-85
2022/05/30 10:21:30;;;;;;;2.10;1.10;;;;;;;10.02;88.66;100877.25;5038180;28;20483;-85
2022/05/30 10:29:58;;;;;;;2.17;0.73;;;;;;;9.96;89.00;100879.03;5072484;28;20159;-84
2022/05/30 10:32:49;;;;;;;2.13;0.95;;;;;;;9.93;88.80;100878.22;5054646;28;20035;-85
2022/05/30 10:35:20;;;;;;;1.38;0.70;;;;;;;9.92;88.29;100885.16;5054905;28;20089;-85
2022/05/30 10:38:17;;;;;;;0.60;0.52;;;;;;;9.91;87.95;100891.28;5054791;28;20446;-85
2022/05/30 10:41:08;;;;;;;0.82;0.57;;;;;;;9.93;88.73;100894.72;5055491;28;20074;-85
2022/05/30 10:43:53;;;;;;;0.57;0.50;;;;;;;9.93;88.80;100896.47;5041941;28;20039;-85
2022/05/30 10:46:34;;;;;;;2.72;0.70;;;;;;;9.90;87.75;100897.38;5059335;28;20437;-85
2022/05/30 10:49:09;;;;;;;4.90;0.93;;;;;;;9.89;86.74;100903.47;5059925;28;20020;-85
2022/05/30 10:52:00;;;;;;;;;;;;;;;9.90;87.29;100894.75;5043678;28;20366;-85
2022/05/30 10:54:32;;;;;;;1.25;0.85;;;;;;;9.89;84.97;100907.84;5057147;28;19915;-85
2022/05/30 10:57:27;;;;;;;0.93;0.93;;;;;;;9.89;85.05;100905.22;5042743;28;20546;-85
2022/05/30 10:59:58;;;;;;;0.75;0.60;;;;;;;9.87;85.62;100905.25;5058971;28;20071;-85
2022/05/30 11:02:34;;;;;;;1.17;0.80;;;;;;;9.87;84.55;100904.34;5042381;28;20591;-85
2022/05/30 11:05:15;;;;;;;2.20;0.60;;;;;;;9.90;83.72;100906.97;5043076;28;20551;-85
2022/05/30 11:08:14;;;;;;;1.95;0.60;;;;;;;9.90;82.57;100907.81;5043100;28;20024;-85
2022/05/30 11:10:56;;;;;;;3.78;0.85;;;;;;;9.98;83.15;100908.59;5059340;28;20021;-85
2022/05/30 11:13:28;;;;;;;2.05;0.60;;;;;;;10.07;82.13;100907.63;5042487;28;20024;-85
2022/05/30 11:16:02;;;;;;;1.77;0.90;;;;;;;10.13;82.18;100907.56;5059462;28;20029;-85
2022/05/30 11:18:40;;;;;;;2.05;0.65;;;;;;;10.21;82.15;100907.50;5042092;28;20139;-85
2022/05/30 11:21:24;;;;;;;1.55;0.70;;;;;;;10.31;83.19;100910.84;5042149;28;20111;-85
2022/05/30 11:23:49;;;;;;;1.65;0.70;;;;;;;10.40;80.57;100899.47;5058415;28;20039;-85
2022/05/30 11:26:33;;;;;;;0.55;0.55;;;;;;;10.47;80.84;100895.88;5041958;28;20474;-85
2022/05/30 11:29:16;;;;;;;1.13;0.68;;;;;;;10.61;81.15;100901.81;5058084;28;20025;-85
2022/05/30 11:31:59;;;;;;;1.65;0.75;;;;;;;10.74;81.06;100896.41;5058437;28;20060;-85
2022/05/30 11:34:33;;;;;;;1.17;0.68;;;;;;;10.72;78.90;100906.03;5058936;28;20020;-85
2022/05/30 11:37:24;;;;;;;2.00;0.80;;;;;;;10.69;78.65;100911.28;5041412;28;20051;-85
2022/05/30 11:39:53;;;;;;;2.63;0.98;;;;;;;10.65;79.77;100921.78;5058440;28;20294;-85
2022/05/30 11:42:48;;;;;;;1.67;0.52;;;;;;;10.60;79.66;100913.13;5042246;28;20494;-85
2022/05/30 11:45:32;;;;;;;1.73;0.70;;;;;;;10.60;80.69;100907.06;5041654;28;20082;-85
2022/05/30 11:48:06;;;;;;;1.40;0.60;;;;;;;10.58;79.25;100914.91;5057704;28;20032;-85
2022/05/30 11:50:34;;;;;;;0.57;0.57;;;;;;;10.60;79.50;100920.97;5041473;28;20028;-85
2022/05/30 11:53:42;;;;;;;1.45;0.70;;;;;;;10.61;78.00;100925.31;5040305;28;20028;-85
2022/05/30 11:56:52;;;;;;;2.05;0.70;;;;;;;10.59;77.38;100916.66;5037677;28;20518;-85
2022/05/30 11:59:34;;;;;;;0.77;0.77;;;;;;;10.58;79.77;100925.38;5021327;28;20036;-85